Terminal Aerodrome Forecast
Issued by NWS

Current Version | Previous Version | Text Only | Print | Product List | Glossary Off
Versions: 1 2 3 4 5 6 7 8 9 10 11 12 13 14 15 16

000
FTUS41 KPBZ 061138
TAFMGW
TAF
KMGW 061138Z 0612/0712 VRB03KT 4SM BR SCT080
     FM061400 VRB03KT P6SM SCT080
     FM070700 VRB03KT 5SM BR SKC=

USA.gov is the U.S. government's official web portal to all federal, state and local government web resources and services.